sensor_id;sensor_type;location;lat;lon;timestamp;P1;durP1;ratioP1;P2;durP2;ratioP2
16135;SDS011;8173;48.354;9.248;2023-05-09T00:02:19;0.57;;;0.57;;
16135;SDS011;8173;48.354;9.248;2023-05-09T00:04:46;0.60;;;0.60;;
16135;SDS011;8173;48.354;9.248;2023-05-09T00:07:12;0.50;;;0.50;;
16135;SDS011;8173;48.354;9.248;2023-05-09T00:09:39;0.60;;;0.60;;
16135;SDS011;8173;48.354;9.248;2023-05-09T00:12:06;0.40;;;0.40;;
16135;SDS011;8173;48.354;9.248;2023-05-09T00:14:33;0.50;;;0.50;;
16135;SDS011;8173;48.354;9.248;2023-05-09T00:17:02;0.50;;;0.50;;
16135;SDS011;8173;48.354;9.248;2023-05-09T00:19:29;0.50;;;0.50;;
16135;SDS011;8173;48.354;9.248;2023-05-09T00:21:56;0.50;;;0.50;;
16135;SDS011;8173;48.354;9.248;2023-05-09T00:24:23;0.50;;;0.50;;
16135;SDS011;8173;48.354;9.248;2023-05-09T00:26:49;0.60;;;0.60;;
16135;SDS011;8173;48.354;9.248;2023-05-09T00:29:16;0.50;;;0.50;;
16135;SDS011;8173;48.354;9.248;2023-05-09T00:31:43;0.50;;;0.50;;
16135;SDS011;8173;48.354;9.248;2023-05-09T00:34:11;0.60;;;0.60;;
16135;SDS011;8173;48.354;9.248;2023-05-09T00:36:37;0.50;;;0.50;;
16135;SDS011;8173;48.354;9.248;2023-05-09T00:39:04;0.50;;;0.50;;
16135;SDS011;8173;48.354;9.248;2023-05-09T00:41:31;0.50;;;0.50;;
16135;SDS011;8173;48.354;9.248;2023-05-09T00:43:58;0.57;;;0.57;;
16135;SDS011;8173;48.354;9.248;2023-05-09T00:46:25;0.50;;;0.50;;
16135;SDS011;8173;48.354;9.248;2023-05-09T00:48:52;0.80;;;0.80;;
16135;SDS011;8173;48.354;9.248;2023-05-09T00:51:21;1.35;;;1.35;;
16135;SDS011;8173;48.354;9.248;2023-05-09T00:53:49;0.60;;;0.60;;
16135;SDS011;8173;48.354;9.248;2023-05-09T00:56:16;0.43;;;0.43;;
16135;SDS011;8173;48.354;9.248;2023-05-09T00:58:43;0.70;;;0.70;;
16135;SDS011;8173;48.354;9.248;2023-05-09T01:01:10;0.60;;;0.60;;
16135;SDS011;8173;48.354;9.248;2023-05-09T01:03:37;0.60;;;0.60;;
16135;SDS011;8173;48.354;9.248;2023-05-09T01:06:07;0.50;;;0.50;;
16135;SDS011;8173;48.354;9.248;2023-05-09T01:08:43;0.70;;;0.70;;
16135;SDS011;8173;48.354;9.248;2023-05-09T01:11:16;0.88;;;0.88;;
16135;SDS011;8173;48.354;9.248;2023-05-09T01:13:56;0.60;;;0.60;;
16135;SDS011;8173;48.354;9.248;2023-05-09T01:16:37;0.50;;;0.50;;
16135;SDS011;8173;48.354;9.248;2023-05-09T01:19:11;0.50;;;0.50;;
16135;SDS011;8173;48.354;9.248;2023-05-09T01:21:52;0.60;;;0.60;;
16135;SDS011;8173;48.354;9.248;2023-05-09T01:24:28;0.50;;;0.50;;
16135;SDS011;8173;48.354;9.248;2023-05-09T01:27:10;0.60;;;0.60;;
16135;SDS011;8173;48.354;9.248;2023-05-09T01:29:48;0.40;;;0.40;;
16135;SDS011;8173;48.354;9.248;2023-05-09T01:32:18;0.57;;;0.57;;
16135;SDS011;8173;48.354;9.248;2023-05-09T01:34:50;0.60;;;0.60;;
16135;SDS011;8173;48.354;9.248;2023-05-09T01:37:21;0.60;;;0.60;;
16135;SDS011;8173;48.354;9.248;2023-05-09T01:39:53;0.50;;;0.50;;
16135;SDS011;8173;48.354;9.248;2023-05-09T01:42:22;0.50;;;0.50;;
16135;SDS011;8173;48.354;9.248;2023-05-09T01:44:52;0.60;;;0.60;;
16135;SDS011;8173;48.354;9.248;2023-05-09T01:47:19;0.40;;;0.40;;
16135;SDS011;8173;48.354;9.248;2023-05-09T01:49:46;0.60;;;0.60;;
16135;SDS011;8173;48.354;9.248;2023-05-09T01:52:15;0.50;;;0.50;;
16135;SDS011;8173;48.354;9.248;2023-05-09T01:54:44;0.60;;;0.60;;
16135;SDS011;8173;48.354;9.248;2023-05-09T01:57:12;0.50;;;0.50;;
16135;SDS011;8173;48.354;9.248;2023-05-09T01:59:40;1.17;;;1.05;;
16135;SDS011;8173;48.354;9.248;2023-05-09T02:02:10;0.50;;;0.50;;
16135;SDS011;8173;48.354;9.248;2023-05-09T02:04:38;0.60;;;0.60;;
16135;SDS011;8173;48.354;9.248;2023-05-09T02:07:06;1.75;;;1.52;;
16135;SDS011;8173;48.354;9.248;2023-05-09T02:09:34;1.30;;;1.30;;
16135;SDS011;8173;48.354;9.248;2023-05-09T02:12:01;7.05;;;3.42;;
16135;SDS011;8173;48.354;9.248;2023-05-09T02:14:29;0.70;;;0.70;;
16135;SDS011;8173;48.354;9.248;2023-05-09T02:16:56;1.52;;;1.48;;
16135;SDS011;8173;48.354;9.248;2023-05-09T02:19:24;0.82;;;0.82;;
16135;SDS011;8173;48.354;9.248;2023-05-09T02:21:50;2.92;;;1.20;;
16135;SDS011;8173;48.354;9.248;2023-05-09T02:24:17;0.63;;;0.63;;
16135;SDS011;8173;48.354;9.248;2023-05-09T02:26:44;0.60;;;0.60;;
16135;SDS011;8173;48.354;9.248;2023-05-09T02:29:11;0.40;;;0.40;;
16135;SDS011;8173;48.354;9.248;2023-05-09T02:31:38;0.60;;;0.60;;
16135;SDS011;8173;48.354;9.248;2023-05-09T02:34:06;1.15;;;0.65;;
16135;SDS011;8173;48.354;9.248;2023-05-09T02:36:35;0.40;;;0.40;;
16135;SDS011;8173;48.354;9.248;2023-05-09T02:39:02;0.93;;;0.93;;
16135;SDS011;8173;48.354;9.248;2023-05-09T02:41:30;0.70;;;0.70;;
16135;SDS011;8173;48.354;9.248;2023-05-09T02:43:56;1.02;;;1.02;;
16135;SDS011;8173;48.354;9.248;2023-05-09T02:46:23;2.97;;;1.35;;
16135;SDS011;8173;48.354;9.248;2023-05-09T02:48:50;0.60;;;0.60;;
16135;SDS011;8173;48.354;9.248;2023-05-09T02:51:17;0.55;;;0.55;;
16135;SDS011;8173;48.354;9.248;2023-05-09T02:53:45;0.65;;;0.65;;
16135;SDS011;8173;48.354;9.248;2023-05-09T02:56:11;0.82;;;0.82;;
16135;SDS011;8173;48.354;9.248;2023-05-09T02:58:39;13.75;;;3.17;;
16135;SDS011;8173;48.354;9.248;2023-05-09T03:01:05;1.88;;;1.77;;
16135;SDS011;8173;48.354;9.248;2023-05-09T03:03:32;0.60;;;0.60;;
16135;SDS011;8173;48.354;9.248;2023-05-09T03:05:59;0.98;;;0.98;;
16135;SDS011;8173;48.354;9.248;2023-05-09T03:08:25;0.70;;;0.70;;
16135;SDS011;8173;48.354;9.248;2023-05-09T03:10:53;0.40;;;0.40;;
16135;SDS011;8173;48.354;9.248;2023-05-09T03:13:21;0.50;;;0.50;;
16135;SDS011;8173;48.354;9.248;2023-05-09T03:15:47;0.60;;;0.60;;
16135;SDS011;8173;48.354;9.248;2023-05-09T03:18:14;0.50;;;0.50;;
16135;SDS011;8173;48.354;9.248;2023-05-09T03:20:41;0.40;;;0.40;;
16135;SDS011;8173;48.354;9.248;2023-05-09T03:23:08;0.70;;;0.70;;
16135;SDS011;8173;48.354;9.248;2023-05-09T03:25:35;0.60;;;0.60;;
16135;SDS011;8173;48.354;9.248;2023-05-09T03:28:03;0.40;;;0.40;;
16135;SDS011;8173;48.354;9.248;2023-05-09T03:30:30;0.50;;;0.50;;
16135;SDS011;8173;48.354;9.248;2023-05-09T03:32:57;0.60;;;0.60;;
16135;SDS011;8173;48.354;9.248;2023-05-09T03:35:23;2.22;;;2.03;;
16135;SDS011;8173;48.354;9.248;2023-05-09T03:37:50;2.28;;;2.17;;
16135;SDS011;8173;48.354;9.248;2023-05-09T03:40:17;4.80;;;2.47;;
16135;SDS011;8173;48.354;9.248;2023-05-09T03:42:43;3.15;;;2.22;;
16135;SDS011;8173;48.354;9.248;2023-05-09T03:45:11;2.78;;;2.58;;
16135;SDS011;8173;48.354;9.248;2023-05-09T03:47:38;3.65;;;3.33;;
16135;SDS011;8173;48.354;9.248;2023-05-09T03:50:05;3.60;;;2.60;;
16135;SDS011;8173;48.354;9.248;2023-05-09T03:52:33;1.70;;;1.60;;
16135;SDS011;8173;48.354;9.248;2023-05-09T03:55:01;1.10;;;1.00;;
16135;SDS011;8173;48.354;9.248;2023-05-09T03:57:28;2.25;;;2.15;;
16135;SDS011;8173;48.354;9.248;2023-05-09T03:59:54;0.40;;;0.40;;
16135;SDS011;8173;48.354;9.248;2023-05-09T04:02:23;0.50;;;0.50;;
16135;SDS011;8173;48.354;9.248;2023-05-09T04:04:50;0.60;;;0.60;;
16135;SDS011;8173;48.354;9.248;2023-05-09T04:07:17;0.50;;;0.50;;
16135;SDS011;8173;48.354;9.248;2023-05-09T04:09:44;0.50;;;0.50;;
16135;SDS011;8173;48.354;9.248;2023-05-09T04:12:11;0.50;;;0.50;;
16135;SDS011;8173;48.354;9.248;2023-05-09T04:14:38;0.57;;;0.57;;
16135;SDS011;8173;48.354;9.248;2023-05-09T04:17:05;0.60;;;0.60;;
16135;SDS011;8173;48.354;9.248;2023-05-09T04:19:33;0.50;;;0.50;;
16135;SDS011;8173;48.354;9.248;2023-05-09T04:21:59;2.78;;;2.50;;
16135;SDS011;8173;48.354;9.248;2023-05-09T04:24:26;0.60;;;0.60;;
16135;SDS011;8173;48.354;9.248;2023-05-09T04:26:53;0.50;;;0.50;;
16135;SDS011;8173;48.354;9.248;2023-05-09T04:29:19;0.50;;;0.50;;
16135;SDS011;8173;48.354;9.248;2023-05-09T04:31:46;0.60;;;0.60;;
16135;SDS011;8173;48.354;9.248;2023-05-09T04:34:13;0.50;;;0.50;;
16135;SDS011;8173;48.354;9.248;2023-05-09T04:36:41;0.50;;;0.50;;
16135;SDS011;8173;48.354;9.248;2023-05-09T04:39:08;0.50;;;0.50;;
16135;SDS011;8173;48.354;9.248;2023-05-09T04:41:35;1.83;;;1.73;;
16135;SDS011;8173;48.354;9.248;2023-05-09T04:44:02;0.40;;;0.40;;
16135;SDS011;8173;48.354;9.248;2023-05-09T04:46:29;0.40;;;0.40;;
16135;SDS011;8173;48.354;9.248;2023-05-09T04:48:56;0.55;;;0.55;;
16135;SDS011;8173;48.354;9.248;2023-05-09T04:51:22;0.93;;;0.80;;
16135;SDS011;8173;48.354;9.248;2023-05-09T04:53:50;1.73;;;1.63;;
16135;SDS011;8173;48.354;9.248;2023-05-09T04:56:17;7.32;;;4.57;;
16135;SDS011;8173;48.354;9.248;2023-05-09T04:58:44;4.57;;;1.85;;
16135;SDS011;8173;48.354;9.248;2023-05-09T05:01:11;0.70;;;0.70;;
16135;SDS011;8173;48.354;9.248;2023-05-09T05:03:37;0.60;;;0.60;;
16135;SDS011;8173;48.354;9.248;2023-05-09T05:06:04;3.28;;;3.13;;
16135;SDS011;8173;48.354;9.248;2023-05-09T05:08:31;0.45;;;0.45;;
16135;SDS011;8173;48.354;9.248;2023-05-09T05:10:59;2.15;;;0.95;;
16135;SDS011;8173;48.354;9.248;2023-05-09T05:13:26;1.05;;;1.05;;
16135;SDS011;8173;48.354;9.248;2023-05-09T05:15:53;0.70;;;0.70;;
16135;SDS011;8173;48.354;9.248;2023-05-09T05:18:20;2.22;;;1.80;;
16135;SDS011;8173;48.354;9.248;2023-05-09T05:20:47;2.72;;;0.88;;
16135;SDS011;8173;48.354;9.248;2023-05-09T05:23:13;14.40;;;4.72;;
16135;SDS011;8173;48.354;9.248;2023-05-09T05:25:40;3.40;;;2.55;;
16135;SDS011;8173;48.354;9.248;2023-05-09T05:28:08;2.28;;;1.48;;
16135;SDS011;8173;48.354;9.248;2023-05-09T05:30:35;4.97;;;3.28;;
16135;SDS011;8173;48.354;9.248;2023-05-09T05:33:01;2.80;;;2.28;;
16135;SDS011;8173;48.354;9.248;2023-05-09T05:35:28;2.97;;;1.63;;
16135;SDS011;8173;48.354;9.248;2023-05-09T05:37:55;1.45;;;1.35;;
16135;SDS011;8173;48.354;9.248;2023-05-09T05:40:22;1.25;;;1.25;;
16135;SDS011;8173;48.354;9.248;2023-05-09T05:42:48;16.95;;;7.43;;
16135;SDS011;8173;48.354;9.248;2023-05-09T05:45:16;4.00;;;2.95;;
16135;SDS011;8173;48.354;9.248;2023-05-09T05:47:43;10.60;;;6.57;;
16135;SDS011;8173;48.354;9.248;2023-05-09T05:50:10;4.53;;;2.03;;
16135;SDS011;8173;48.354;9.248;2023-05-09T05:52:37;2.33;;;2.13;;
16135;SDS011;8173;48.354;9.248;2023-05-09T05:55:04;1.27;;;1.27;;
16135;SDS011;8173;48.354;9.248;2023-05-09T05:57:31;0.80;;;0.80;;
16135;SDS011;8173;48.354;9.248;2023-05-09T05:59:59;5.57;;;3.83;;
16135;SDS011;8173;48.354;9.248;2023-05-09T06:02:31;3.30;;;1.15;;
16135;SDS011;8173;48.354;9.248;2023-05-09T06:04:58;2.35;;;1.88;;
16135;SDS011;8173;48.354;9.248;2023-05-09T06:07:24;4.93;;;4.22;;
16135;SDS011;8173;48.354;9.248;2023-05-09T06:09:52;12.32;;;7.63;;
16135;SDS011;8173;48.354;9.248;2023-05-09T06:12:19;7.43;;;4.57;;
16135;SDS011;8173;48.354;9.248;2023-05-09T06:14:45;5.72;;;4.03;;
16135;SDS011;8173;48.354;9.248;2023-05-09T06:17:12;1.25;;;1.25;;
16135;SDS011;8173;48.354;9.248;2023-05-09T06:19:40;2.80;;;2.58;;
16135;SDS011;8173;48.354;9.248;2023-05-09T06:22:07;10.10;;;6.07;;
16135;SDS011;8173;48.354;9.248;2023-05-09T06:24:33;1.38;;;1.38;;
16135;SDS011;8173;48.354;9.248;2023-05-09T06:27:00;14.95;;;7.82;;
16135;SDS011;8173;48.354;9.248;2023-05-09T06:29:27;19.67;;;10.07;;
16135;SDS011;8173;48.354;9.248;2023-05-09T06:31:53;13.13;;;8.70;;
16135;SDS011;8173;48.354;9.248;2023-05-09T06:34:20;1.88;;;1.77;;
16135;SDS011;8173;48.354;9.248;2023-05-09T06:36:48;21.23;;;11.45;;
16135;SDS011;8173;48.354;9.248;2023-05-09T06:39:15;5.22;;;3.60;;
16135;SDS011;8173;48.354;9.248;2023-05-09T06:41:41;8.93;;;6.05;;
16135;SDS011;8173;48.354;9.248;2023-05-09T06:44:08;11.10;;;6.75;;
16135;SDS011;8173;48.354;9.248;2023-05-09T06:46:35;5.10;;;3.85;;
16135;SDS011;8173;48.354;9.248;2023-05-09T06:49:01;11.80;;;7.57;;
16135;SDS011;8173;48.354;9.248;2023-05-09T06:51:30;13.95;;;8.95;;
16135;SDS011;8173;48.354;9.248;2023-05-09T06:53:58;15.25;;;10.00;;
16135;SDS011;8173;48.354;9.248;2023-05-09T06:56:25;11.88;;;7.50;;
16135;SDS011;8173;48.354;9.248;2023-05-09T06:58:51;5.97;;;4.78;;
16135;SDS011;8173;48.354;9.248;2023-05-09T07:01:18;11.10;;;7.38;;
16135;SDS011;8173;48.354;9.248;2023-05-09T07:03:45;8.55;;;4.80;;
16135;SDS011;8173;48.354;9.248;2023-05-09T07:06:12;20.90;;;10.73;;
16135;SDS011;8173;48.354;9.248;2023-05-09T07:08:38;10.55;;;6.90;;
16135;SDS011;8173;48.354;9.248;2023-05-09T07:11:06;10.10;;;5.22;;
16135;SDS011;8173;48.354;9.248;2023-05-09T07:13:33;12.43;;;8.38;;
16135;SDS011;8173;48.354;9.248;2023-05-09T07:16:00;12.38;;;6.22;;
16135;SDS011;8173;48.354;9.248;2023-05-09T07:18:27;5.97;;;5.20;;
16135;SDS011;8173;48.354;9.248;2023-05-09T07:20:54;17.90;;;7.90;;
16135;SDS011;8173;48.354;9.248;2023-05-09T07:23:21;4.15;;;3.17;;
16135;SDS011;8173;48.354;9.248;2023-05-09T07:25:49;2.45;;;2.15;;
16135;SDS011;8173;48.354;9.248;2023-05-09T07:28:23;2.10;;;2.00;;
16135;SDS011;8173;48.354;9.248;2023-05-09T07:30:50;13.48;;;10.23;;
16135;SDS011;8173;48.354;9.248;2023-05-09T07:33:16;17.35;;;9.77;;
16135;SDS011;8173;48.354;9.248;2023-05-09T07:35:43;9.32;;;4.78;;
16135;SDS011;8173;48.354;9.248;2023-05-09T07:38:10;8.20;;;4.88;;
16135;SDS011;8173;48.354;9.248;2023-05-09T07:40:36;7.95;;;5.95;;
16135;SDS011;8173;48.354;9.248;2023-05-09T07:43:03;0.90;;;0.90;;
16135;SDS011;8173;48.354;9.248;2023-05-09T07:45:31;4.35;;;2.15;;
16135;SDS011;8173;48.354;9.248;2023-05-09T07:47:58;2.53;;;1.95;;
16135;SDS011;8173;48.354;9.248;2023-05-09T07:50:25;4.78;;;3.03;;
16135;SDS011;8173;48.354;9.248;2023-05-09T07:52:52;8.95;;;6.05;;
16135;SDS011;8173;48.354;9.248;2023-05-09T07:55:19;3.10;;;2.47;;
16135;SDS011;8173;48.354;9.248;2023-05-09T07:57:46;2.95;;;2.38;;
16135;SDS011;8173;48.354;9.248;2023-05-09T08:00:13;5.15;;;3.45;;
16135;SDS011;8173;48.354;9.248;2023-05-09T08:02:41;3.50;;;2.47;;
16135;SDS011;8173;48.354;9.248;2023-05-09T08:05:08;7.30;;;4.53;;
16135;SDS011;8173;48.354;9.248;2023-05-09T08:07:37;3.63;;;1.90;;
16135;SDS011;8173;48.354;9.248;2023-05-09T08:10:04;3.08;;;2.42;;
16135;SDS011;8173;48.354;9.248;2023-05-09T08:12:31;11.68;;;6.65;;
16135;SDS011;8173;48.354;9.248;2023-05-09T08:14:58;10.02;;;6.57;;
16135;SDS011;8173;48.354;9.248;2023-05-09T08:17:25;3.05;;;2.00;;
16135;SDS011;8173;48.354;9.248;2023-05-09T08:19:53;2.50;;;2.10;;
16135;SDS011;8173;48.354;9.248;2023-05-09T08:22:20;2.28;;;2.17;;
16135;SDS011;8173;48.354;9.248;2023-05-09T08:24:47;3.60;;;3.17;;
16135;SDS011;8173;48.354;9.248;2023-05-09T08:27:13;7.78;;;4.95;;
16135;SDS011;8173;48.354;9.248;2023-05-09T08:29:40;9.60;;;6.47;;
16135;SDS011;8173;48.354;9.248;2023-05-09T08:32:08;4.30;;;2.70;;
16135;SDS011;8173;48.354;9.248;2023-05-09T08:34:35;0.65;;;0.65;;
16135;SDS011;8173;48.354;9.248;2023-05-09T08:37:03;5.03;;;2.83;;
16135;SDS011;8173;48.354;9.248;2023-05-09T08:39:30;3.67;;;2.42;;
16135;SDS011;8173;48.354;9.248;2023-05-09T08:41:59;0.60;;;0.60;;
16135;SDS011;8173;48.354;9.248;2023-05-09T08:44:28;4.70;;;4.10;;
16135;SDS011;8173;48.354;9.248;2023-05-09T08:46:57;3.03;;;2.83;;
16135;SDS011;8173;48.354;9.248;2023-05-09T08:49:25;4.40;;;2.38;;
16135;SDS011;8173;48.354;9.248;2023-05-09T08:51:52;4.55;;;3.33;;
16135;SDS011;8173;48.354;9.248;2023-05-09T08:54:21;9.43;;;3.88;;
16135;SDS011;8173;48.354;9.248;2023-05-09T08:56:49;5.07;;;3.63;;
16135;SDS011;8173;48.354;9.248;2023-05-09T08:59:16;1.63;;;1.60;;
16135;SDS011;8173;48.354;9.248;2023-05-09T09:01:43;4.38;;;3.08;;
16135;SDS011;8173;48.354;9.248;2023-05-09T09:04:10;5.40;;;2.90;;
16135;SDS011;8173;48.354;9.248;2023-05-09T09:06:37;0.40;;;0.40;;
16135;SDS011;8173;48.354;9.248;2023-05-09T09:09:05;5.97;;;4.43;;
16135;SDS011;8173;48.354;9.248;2023-05-09T09:11:35;7.20;;;4.72;;
16135;SDS011;8173;48.354;9.248;2023-05-09T09:14:05;7.20;;;4.78;;
16135;SDS011;8173;48.354;9.248;2023-05-09T09:16:35;0.95;;;0.95;;
16135;SDS011;8173;48.354;9.248;2023-05-09T09:19:02;2.10;;;1.75;;
16135;SDS011;8173;48.354;9.248;2023-05-09T09:21:30;0.70;;;0.70;;
16135;SDS011;8173;48.354;9.248;2023-05-09T09:23:58;2.17;;;2.03;;
16135;SDS011;8173;48.354;9.248;2023-05-09T09:26:25;8.05;;;4.13;;
16135;SDS011;8173;48.354;9.248;2023-05-09T09:28:57;8.80;;;6.13;;
16135;SDS011;8173;48.354;9.248;2023-05-09T09:31:24;5.40;;;3.22;;
16135;SDS011;8173;48.354;9.248;2023-05-09T09:33:57;3.67;;;2.58;;
16135;SDS011;8173;48.354;9.248;2023-05-09T09:36:25;2.92;;;2.10;;
16135;SDS011;8173;48.354;9.248;2023-05-09T09:38:55;1.20;;;1.13;;
16135;SDS011;8173;48.354;9.248;2023-05-09T09:41:28;0.50;;;0.50;;
16135;SDS011;8173;48.354;9.248;2023-05-09T09:43:58;1.55;;;1.38;;
16135;SDS011;8173;48.354;9.248;2023-05-09T09:46:34;1.20;;;1.15;;
16135;SDS011;8173;48.354;9.248;2023-05-09T09:49:07;1.65;;;1.45;;
16135;SDS011;8173;48.354;9.248;2023-05-09T09:51:34;3.67;;;3.22;;
16135;SDS011;8173;48.354;9.248;2023-05-09T09:54:01;3.05;;;1.70;;
16135;SDS011;8173;48.354;9.248;2023-05-09T09:56:37;5.45;;;4.22;;
16135;SDS011;8173;48.354;9.248;2023-05-09T09:59:09;2.85;;;2.40;;
16135;SDS011;8173;48.354;9.248;2023-05-09T10:04:24;1.73;;;1.63;;
16135;SDS011;8173;48.354;9.248;2023-05-09T10:06:52;1.00;;;1.00;;
16135;SDS011;8173;48.354;9.248;2023-05-09T10:09:20;3.83;;;3.13;;
16135;SDS011;8173;48.354;9.248;2023-05-09T10:11:48;4.60;;;3.67;;
16135;SDS011;8173;48.354;9.248;2023-05-09T10:14:18;6.68;;;4.32;;
16135;SDS011;8173;48.354;9.248;2023-05-09T10:16:46;2.45;;;2.25;;
16135;SDS011;8173;48.354;9.248;2023-05-09T10:19:15;3.90;;;2.58;;
16135;SDS011;8173;48.354;9.248;2023-05-09T10:21:45;4.45;;;2.10;;
16135;SDS011;8173;48.354;9.248;2023-05-09T10:24:17;4.50;;;3.20;;
16135;SDS011;8173;48.354;9.248;2023-05-09T10:26:51;4.20;;;3.22;;
16135;SDS011;8173;48.354;9.248;2023-05-09T10:29:23;5.45;;;3.15;;
16135;SDS011;8173;48.354;9.248;2023-05-09T10:31:53;7.75;;;3.42;;
16135;SDS011;8173;48.354;9.248;2023-05-09T10:34:26;3.67;;;2.88;;
16135;SDS011;8173;48.354;9.248;2023-05-09T10:36:56;2.30;;;1.73;;
16135;SDS011;8173;48.354;9.248;2023-05-09T10:39:24;4.45;;;3.75;;
16135;SDS011;8173;48.354;9.248;2023-05-09T10:41:52;5.15;;;3.28;;
16135;SDS011;8173;48.354;9.248;2023-05-09T10:44:20;0.55;;;0.55;;
16135;SDS011;8173;48.354;9.248;2023-05-09T10:46:50;1.23;;;1.23;;
16135;SDS011;8173;48.354;9.248;2023-05-09T10:49:17;3.92;;;2.38;;
16135;SDS011;8173;48.354;9.248;2023-05-09T10:51:45;4.28;;;3.17;;
16135;SDS011;8173;48.354;9.248;2023-05-09T10:54:12;3.13;;;2.10;;
16135;SDS011;8173;48.354;9.248;2023-05-09T10:56:40;2.33;;;2.13;;
16135;SDS011;8173;48.354;9.248;2023-05-09T10:59:14;4.55;;;2.42;;
16135;SDS011;8173;48.354;9.248;2023-05-09T11:02:00;1.15;;;1.15;;
16135;SDS011;8173;48.354;9.248;2023-05-09T11:04:28;3.20;;;1.98;;
16135;SDS011;8173;48.354;9.248;2023-05-09T11:06:56;1.48;;;1.48;;
16135;SDS011;8173;48.354;9.248;2023-05-09T11:09:23;0.85;;;0.85;;
16135;SDS011;8173;48.354;9.248;2023-05-09T11:11:57;4.25;;;3.05;;
16135;SDS011;8173;48.354;9.248;2023-05-09T11:14:36;3.03;;;2.72;;
16135;SDS011;8173;48.354;9.248;2023-05-09T11:17:05;3.00;;;2.38;;
16135;SDS011;8173;48.354;9.248;2023-05-09T11:19:33;0.60;;;0.60;;
16135;SDS011;8173;48.354;9.248;2023-05-09T11:22:03;2.95;;;1.23;;
16135;SDS011;8173;48.354;9.248;2023-05-09T11:24:38;2.17;;;1.98;;
16135;SDS011;8173;48.354;9.248;2023-05-09T11:27:12;2.78;;;2.53;;
16135;SDS011;8173;48.354;9.248;2023-05-09T11:29:48;2.30;;;2.10;;
16135;SDS011;8173;48.354;9.248;2023-05-09T11:32:16;4.70;;;3.22;;
16135;SDS011;8173;48.354;9.248;2023-05-09T11:34:43;1.60;;;1.20;;
16135;SDS011;8173;48.354;9.248;2023-05-09T11:37:10;1.35;;;1.25;;
16135;SDS011;8173;48.354;9.248;2023-05-09T11:39:54;0.65;;;0.65;;
16135;SDS011;8173;48.354;9.248;2023-05-09T11:42:23;2.25;;;1.88;;
16135;SDS011;8173;48.354;9.248;2023-05-09T11:44:51;3.03;;;2.65;;
16135;SDS011;8173;48.354;9.248;2023-05-09T11:47:18;1.58;;;1.35;;
16135;SDS011;8173;48.354;9.248;2023-05-09T11:49:46;4.28;;;2.70;;
16135;SDS011;8173;48.354;9.248;2023-05-09T11:52:13;1.55;;;1.30;;
16135;SDS011;8173;48.354;9.248;2023-05-09T11:54:40;3.88;;;3.10;;
16135;SDS011;8173;48.354;9.248;2023-05-09T11:57:07;1.70;;;1.60;;
16135;SDS011;8173;48.354;9.248;2023-05-09T11:59:34;3.22;;;1.98;;
16135;SDS011;8173;48.354;9.248;2023-05-09T12:02:03;1.48;;;1.23;;
16135;SDS011;8173;48.354;9.248;2023-05-09T12:04:30;4.35;;;2.80;;
16135;SDS011;8173;48.354;9.248;2023-05-09T12:06:57;3.28;;;2.15;;
16135;SDS011;8173;48.354;9.248;2023-05-09T12:09:25;2.05;;;1.85;;
16135;SDS011;8173;48.354;9.248;2023-05-09T12:11:55;3.03;;;2.72;;
16135;SDS011;8173;48.354;9.248;2023-05-09T12:14:25;1.30;;;1.20;;
16135;SDS011;8173;48.354;9.248;2023-05-09T12:16:52;1.02;;;0.95;;
16135;SDS011;8173;48.354;9.248;2023-05-09T12:19:20;2.78;;;2.08;;
16135;SDS011;8173;48.354;9.248;2023-05-09T12:21:52;1.35;;;1.20;;
16135;SDS011;8173;48.354;9.248;2023-05-09T12:24:20;3.35;;;1.58;;
16135;SDS011;8173;48.354;9.248;2023-05-09T12:26:47;3.35;;;2.97;;
16135;SDS011;8173;48.354;9.248;2023-05-09T12:29:14;1.30;;;1.20;;
16135;SDS011;8173;48.354;9.248;2023-05-09T12:31:42;0.60;;;0.60;;
16135;SDS011;8173;48.354;9.248;2023-05-09T12:34:08;1.33;;;1.23;;
16135;SDS011;8173;48.354;9.248;2023-05-09T12:36:37;0.65;;;0.65;;
16135;SDS011;8173;48.354;9.248;2023-05-09T12:39:06;2.20;;;1.52;;
16135;SDS011;8173;48.354;9.248;2023-05-09T12:41:34;3.50;;;2.15;;
16135;SDS011;8173;48.354;9.248;2023-05-09T12:44:01;2.97;;;1.58;;
16135;SDS011;8173;48.354;9.248;2023-05-09T12:46:28;1.65;;;1.55;;
16135;SDS011;8173;48.354;9.248;2023-05-09T12:48:55;2.22;;;1.77;;
16135;SDS011;8173;48.354;9.248;2023-05-09T12:51:22;1.08;;;1.08;;
16135;SDS011;8173;48.354;9.248;2023-05-09T12:53:50;1.98;;;1.70;;
16135;SDS011;8173;48.354;9.248;2023-05-09T12:56:18;1.30;;;1.20;;
16135;SDS011;8173;48.354;9.248;2023-05-09T12:58:47;1.63;;;1.52;;
16135;SDS011;8173;48.354;9.248;2023-05-09T13:01:15;1.55;;;1.40;;
16135;SDS011;8173;48.354;9.248;2023-05-09T13:03:42;4.22;;;3.47;;
16135;SDS011;8173;48.354;9.248;2023-05-09T13:06:10;3.20;;;1.70;;
16135;SDS011;8173;48.354;9.248;2023-05-09T13:08:38;2.85;;;2.60;;
16135;SDS011;8173;48.354;9.248;2023-05-09T13:11:06;0.70;;;0.70;;
16135;SDS011;8173;48.354;9.248;2023-05-09T13:13:36;3.03;;;1.67;;
16135;SDS011;8173;48.354;9.248;2023-05-09T13:16:03;1.90;;;1.52;;
16135;SDS011;8173;48.354;9.248;2023-05-09T13:18:31;1.27;;;1.20;;
16135;SDS011;8173;48.354;9.248;2023-05-09T13:20:57;1.90;;;1.48;;
16135;SDS011;8173;48.354;9.248;2023-05-09T13:23:24;2.35;;;1.50;;
16135;SDS011;8173;48.354;9.248;2023-05-09T13:25:51;1.63;;;1.52;;
16135;SDS011;8173;48.354;9.248;2023-05-09T13:28:19;3.60;;;2.20;;
16135;SDS011;8173;48.354;9.248;2023-05-09T13:30:45;1.50;;;1.40;;
16135;SDS011;8173;48.354;9.248;2023-05-09T13:33:12;0.80;;;0.80;;
16135;SDS011;8173;48.354;9.248;2023-05-09T13:35:39;1.73;;;1.25;;
16135;SDS011;8173;48.354;9.248;2023-05-09T13:38:05;1.02;;;1.02;;
16135;SDS011;8173;48.354;9.248;2023-05-09T13:40:32;1.27;;;1.15;;
16135;SDS011;8173;48.354;9.248;2023-05-09T13:42:59;1.77;;;1.65;;
16135;SDS011;8173;48.354;9.248;2023-05-09T13:45:27;1.85;;;1.73;;
16135;SDS011;8173;48.354;9.248;2023-05-09T13:47:54;3.20;;;2.33;;
16135;SDS011;8173;48.354;9.248;2023-05-09T13:50:20;0.68;;;0.68;;
16135;SDS011;8173;48.354;9.248;2023-05-09T13:52:47;0.80;;;0.80;;
16135;SDS011;8173;48.354;9.248;2023-05-09T13:55:14;2.00;;;1.73;;
16135;SDS011;8173;48.354;9.248;2023-05-09T13:57:41;1.77;;;1.38;;
16135;SDS011;8173;48.354;9.248;2023-05-09T14:00:08;1.67;;;1.50;;
16135;SDS011;8173;48.354;9.248;2023-05-09T14:02:37;1.35;;;0.93;;
16135;SDS011;8173;48.354;9.248;2023-05-09T14:05:04;3.17;;;1.92;;
16135;SDS011;8173;48.354;9.248;2023-05-09T14:07:31;1.90;;;1.80;;
16135;SDS011;8173;48.354;9.248;2023-05-09T14:09:58;1.00;;;1.00;;
16135;SDS011;8173;48.354;9.248;2023-05-09T14:12:25;1.50;;;1.40;;
16135;SDS011;8173;48.354;9.248;2023-05-09T14:14:52;1.55;;;1.45;;
16135;SDS011;8173;48.354;9.248;2023-05-09T14:17:19;1.27;;;1.17;;
16135;SDS011;8173;48.354;9.248;2023-05-09T14:19:47;1.58;;;1.45;;
16135;SDS011;8173;48.354;9.248;2023-05-09T14:22:14;1.48;;;1.33;;
16135;SDS011;8173;48.354;9.248;2023-05-09T14:24:41;1.33;;;1.17;;
16135;SDS011;8173;48.354;9.248;2023-05-09T14:27:07;0.82;;;0.82;;
16135;SDS011;8173;48.354;9.248;2023-05-09T14:29:34;1.70;;;1.30;;
16135;SDS011;8173;48.354;9.248;2023-05-09T14:32:03;0.80;;;0.80;;
16135;SDS011;8173;48.354;9.248;2023-05-09T14:34:31;1.52;;;1.27;;
16135;SDS011;8173;48.354;9.248;2023-05-09T14:36:59;0.90;;;0.90;;
16135;SDS011;8173;48.354;9.248;2023-05-09T14:39:25;2.35;;;1.75;;
16135;SDS011;8173;48.354;9.248;2023-05-09T14:41:52;1.27;;;1.17;;
16135;SDS011;8173;48.354;9.248;2023-05-09T14:44:19;0.80;;;0.80;;
16135;SDS011;8173;48.354;9.248;2023-05-09T14:46:48;1.73;;;1.20;;
16135;SDS011;8173;48.354;9.248;2023-05-09T14:49:15;3.53;;;2.03;;
16135;SDS011;8173;48.354;9.248;2023-05-09T14:51:41;1.30;;;1.20;;
16135;SDS011;8173;48.354;9.248;2023-05-09T14:54:09;1.63;;;1.48;;
16135;SDS011;8173;48.354;9.248;2023-05-09T14:56:36;0.98;;;0.98;;
16135;SDS011;8173;48.354;9.248;2023-05-09T14:59:03;0.90;;;0.90;;
16135;SDS011;8173;48.354;9.248;2023-05-09T15:01:29;3.20;;;2.10;;
16135;SDS011;8173;48.354;9.248;2023-05-09T15:03:56;1.50;;;1.23;;
16135;SDS011;8173;48.354;9.248;2023-05-09T15:06:23;2.63;;;1.98;;
16135;SDS011;8173;48.354;9.248;2023-05-09T15:08:50;2.38;;;1.70;;